Etusivu
METAR-TAF:

METAR-TAF

Lentoasemat :

Albertus Airport

Freeport, Illinois, Yhdysvallat

Leveyspiiri: 42-14-47N, Pituuspiiri: 089-34-56W, korkeus merenpinnasta: 262 m

Tämänhetkinen sää

Tämä raportti tehtiin 10 minuuttia sitten, kello 10.55 UTC
Tuuli 4 kn lännestä
Lämpötila 3°C
Kosteus 93%
Ilmanpaine 1018 hPa
Näkyvyys: 16.1 km
selkeää

METAR: KFEP 171055Z AUTO 26004KT 10SM CLR 03/02 A3005 RMK AO2 T00250022

Aika: 06:05 (11:05 UTC)


TAF: puuttuu

Säähavainnot ja -ennusteet yli 4000 lentoasemalta (METAR- ja TAF-raportit).

Käytössä olevat sääasemat on merkitty karttaan keltaisilla ja punaisilla pisteillä.

Aseta hiiri pisteen päälle nähdäksesi sääaseman nimen.

Klikkaa sitten nähdäksesi säähavainnot ja -ennusteet.

Kartan vaihtaminen: klikkaa mustalla rastilla varustettuja vihreitä pisteitä, niin voit zoomata sisään; viivalla varustettua vihreää pistettä, niin voit zoomata ulos tai vihreitä nuolia, niin pääset viereisille kartoille.


METAR-TAF: